sensor_id;sensor_type;location;lat;lon;timestamp;pressure;altitude;pressure_sealevel;temperature;humidity
51999;BME280;38015;50.924;11.598;2022-09-09T00:00:13;99049.30;;;23.31;45.93
51999;BME280;38015;50.924;11.598;2022-09-09T00:02:45;99045.06;;;23.25;46.08
51999;BME280;38015;50.924;11.598;2022-09-09T00:05:16;99043.87;;;23.30;45.95
51999;BME280;38015;50.924;11.598;2022-09-09T00:07:45;99040.01;;;23.26;46.01
51999;BME280;38015;50.924;11.598;2022-09-09T00:10:18;99044.78;;;23.24;46.06
51999;BME280;38015;50.924;11.598;2022-09-09T00:12:48;99052.00;;;23.29;45.92
51999;BME280;38015;50.924;11.598;2022-09-09T00:15:13;99051.09;;;23.32;45.82
51999;BME280;38015;50.924;11.598;2022-09-09T00:17:46;99050.88;;;23.28;45.91
51999;BME280;38015;50.924;11.598;2022-09-09T00:20:14;99050.47;;;23.29;45.85
51999;BME280;38015;50.924;11.598;2022-09-09T00:22:47;99047.32;;;23.31;45.79
51999;BME280;38015;50.924;11.598;2022-09-09T00:25:18;99047.29;;;23.22;45.98
51999;BME280;38015;50.924;11.598;2022-09-09T00:27:46;99044.83;;;23.21;46.03
51999;BME280;38015;50.924;11.598;2022-09-09T00:30:16;99044.35;;;23.26;45.91
51999;BME280;38015;50.924;11.598;2022-09-09T00:32:44;99046.25;;;23.33;45.68
51999;BME280;38015;50.924;11.598;2022-09-09T00:35:18;99048.58;;;23.23;45.85
51999;BME280;38015;50.924;11.598;2022-09-09T00:37:46;99048.80;;;23.30;45.70
51999;BME280;38015;50.924;11.598;2022-09-09T00:40:23;99046.12;;;23.28;45.78
51999;BME280;38015;50.924;11.598;2022-09-09T00:42:45;99042.76;;;23.24;45.79
51999;BME280;38015;50.924;11.598;2022-09-09T00:45:30;99043.50;;;23.30;45.63
51999;BME280;38015;50.924;11.598;2022-09-09T00:47:46;99038.21;;;23.23;45.82
51999;BME280;38015;50.924;11.598;2022-09-09T00:50:26;99039.68;;;23.24;45.77
51999;BME280;38015;50.924;11.598;2022-09-09T00:52:50;99041.71;;;23.19;45.87
51999;BME280;38015;50.924;11.598;2022-09-09T00:55:21;99041.30;;;23.24;45.77
51999;BME280;38015;50.924;11.598;2022-09-09T00:57:50;99041.00;;;23.30;45.54
51999;BME280;38015;50.924;11.598;2022-09-09T01:00:21;99043.01;;;23.26;45.66
51999;BME280;38015;50.924;11.598;2022-09-09T01:02:54;99036.58;;;23.29;45.57
51999;BME280;38015;50.924;11.598;2022-09-09T01:05:22;99042.02;;;23.18;45.81
51999;BME280;38015;50.924;11.598;2022-09-09T01:07:49;99041.15;;;23.22;45.74
51999;BME280;38015;50.924;11.598;2022-09-09T01:10:26;99038.52;;;23.23;45.66
51999;BME280;38015;50.924;11.598;2022-09-09T01:12:51;99038.09;;;23.22;45.71
51999;BME280;38015;50.924;11.598;2022-09-09T01:15:24;99037.92;;;23.18;45.76
51999;BME280;38015;50.924;11.598;2022-09-09T01:17:59;99032.66;;;23.24;45.61
51999;BME280;38015;50.924;11.598;2022-09-09T01:20:24;99023.04;;;23.25;45.53
51999;BME280;38015;50.924;11.598;2022-09-09T01:23:03;99019.97;;;23.21;45.62
51999;BME280;38015;50.924;11.598;2022-09-09T01:25:29;99020.67;;;23.25;45.50
51999;BME280;38015;50.924;11.598;2022-09-09T01:27:53;99020.44;;;23.21;45.54
51999;BME280;38015;50.924;11.598;2022-09-09T01:30:25;99020.72;;;23.20;45.58
51999;BME280;38015;50.924;11.598;2022-09-09T01:32:54;99021.59;;;23.28;45.36
51999;BME280;38015;50.924;11.598;2022-09-09T01:35:31;99016.26;;;23.18;45.57
51999;BME280;38015;50.924;11.598;2022-09-09T01:37:52;99015.10;;;23.22;45.50
51999;BME280;38015;50.924;11.598;2022-09-09T01:40:24;99011.55;;;23.17;45.49
51999;BME280;38015;50.924;11.598;2022-09-09T01:42:54;99011.53;;;23.22;45.37
51999;BME280;38015;50.924;11.598;2022-09-09T01:45:24;99014.93;;;23.10;45.67
51999;BME280;38015;50.924;11.598;2022-09-09T01:47:54;99015.29;;;23.18;45.49
51999;BME280;38015;50.924;11.598;2022-09-09T01:50:24;99013.38;;;23.19;45.42
51999;BME280;38015;50.924;11.598;2022-09-09T01:52:57;99016.21;;;23.12;45.56
51999;BME280;38015;50.924;11.598;2022-09-09T01:55:30;99020.25;;;23.13;45.53
51999;BME280;38015;50.924;11.598;2022-09-09T01:58:02;99022.43;;;23.20;45.38
51999;BME280;38015;50.924;11.598;2022-09-09T02:00:26;99024.19;;;23.17;45.37
51999;BME280;38015;50.924;11.598;2022-09-09T02:03:02;99025.70;;;23.10;45.53
51999;BME280;38015;50.924;11.598;2022-09-09T02:05:34;99024.08;;;23.15;45.38
51999;BME280;38015;50.924;11.598;2022-09-09T02:08:03;99025.68;;;23.17;45.32
51999;BME280;38015;50.924;11.598;2022-09-09T02:10:31;99029.22;;;23.16;45.32
51999;BME280;38015;50.924;11.598;2022-09-09T02:13:02;99026.82;;;23.18;45.24
51999;BME280;38015;50.924;11.598;2022-09-09T02:15:32;99027.37;;;23.16;45.30
51999;BME280;38015;50.924;11.598;2022-09-09T02:17:58;99029.56;;;23.22;45.13
51999;BME280;38015;50.924;11.598;2022-09-09T02:20:30;99033.66;;;23.21;45.15
51999;BME280;38015;50.924;11.598;2022-09-09T02:22:59;99032.64;;;23.09;45.39
51999;BME280;38015;50.924;11.598;2022-09-09T02:25:29;99033.94;;;23.12;45.34
51999;BME280;38015;50.924;11.598;2022-09-09T02:27:59;99032.65;;;23.18;45.21
51999;BME280;38015;50.924;11.598;2022-09-09T02:30:30;99034.49;;;23.11;45.33
51999;BME280;38015;50.924;11.598;2022-09-09T02:33:02;99032.06;;;23.11;45.28
51999;BME280;38015;50.924;11.598;2022-09-09T02:35:31;99028.22;;;23.13;45.22
51999;BME280;38015;50.924;11.598;2022-09-09T02:38:05;99026.19;;;23.13;45.17
51999;BME280;38015;50.924;11.598;2022-09-09T02:40:32;99019.79;;;23.10;45.22
51999;BME280;38015;50.924;11.598;2022-09-09T02:43:02;99019.22;;;23.12;45.19
51999;BME280;38015;50.924;11.598;2022-09-09T02:45:36;99018.33;;;23.12;45.13
51999;BME280;38015;50.924;11.598;2022-09-09T02:48:09;99016.58;;;23.13;45.11
51999;BME280;38015;50.924;11.598;2022-09-09T02:50:34;99016.77;;;23.10;45.18
51999;BME280;38015;50.924;11.598;2022-09-09T02:53:09;99014.82;;;23.14;45.04
51999;BME280;38015;50.924;11.598;2022-09-09T02:55:38;99015.83;;;23.15;45.05
51999;BME280;38015;50.924;11.598;2022-09-09T02:58:05;99013.08;;;23.10;45.11
51999;BME280;38015;50.924;11.598;2022-09-09T03:00:34;99012.40;;;23.17;44.95
51999;BME280;38015;50.924;11.598;2022-09-09T03:03:05;99016.22;;;23.12;44.99
51999;BME280;38015;50.924;11.598;2022-09-09T03:05:35;99016.59;;;23.13;45.00
51999;BME280;38015;50.924;11.598;2022-09-09T03:08:05;99015.84;;;23.11;45.00
51999;BME280;38015;50.924;11.598;2022-09-09T03:10:35;99013.70;;;23.07;45.04
51999;BME280;38015;50.924;11.598;2022-09-09T03:13:06;99013.86;;;23.10;45.01
51999;BME280;38015;50.924;11.598;2022-09-09T03:15:36;99013.15;;;23.09;44.99
51999;BME280;38015;50.924;11.598;2022-09-09T03:18:06;99019.08;;;23.16;44.78
51999;BME280;38015;50.924;11.598;2022-09-09T03:20:37;99020.35;;;23.06;45.02
51999;BME280;38015;50.924;11.598;2022-09-09T03:23:07;99020.13;;;23.04;45.07
51999;BME280;38015;50.924;11.598;2022-09-09T03:25:37;99021.06;;;23.07;44.98
51999;BME280;38015;50.924;11.598;2022-09-09T03:28:08;99020.74;;;23.06;45.02
51999;BME280;38015;50.924;11.598;2022-09-09T03:30:39;99021.71;;;23.10;44.86
51999;BME280;38015;50.924;11.598;2022-09-09T03:33:09;99020.92;;;23.09;44.86
51999;BME280;38015;50.924;11.598;2022-09-09T03:35:45;99015.51;;;23.07;44.92
51999;BME280;38015;50.924;11.598;2022-09-09T03:38:09;99015.48;;;23.08;44.87
51999;BME280;38015;50.924;11.598;2022-09-09T03:43:10;99009.79;;;23.09;44.70
51999;BME280;38015;50.924;11.598;2022-09-09T03:45:43;99015.65;;;23.08;44.79
51999;BME280;38015;50.924;11.598;2022-09-09T03:48:11;99015.46;;;23.10;44.71
51999;BME280;38015;50.924;11.598;2022-09-09T03:50:44;99015.66;;;23.05;44.84
51999;BME280;38015;50.924;11.598;2022-09-09T03:53:11;99020.10;;;23.01;44.92
51999;BME280;38015;50.924;11.598;2022-09-09T03:55:44;99020.65;;;23.00;44.91
51999;BME280;38015;50.924;11.598;2022-09-09T03:58:13;99020.92;;;23.03;44.83
51999;BME280;38015;50.924;11.598;2022-09-09T04:00:42;99023.08;;;23.00;44.91
51999;BME280;38015;50.924;11.598;2022-09-09T04:03:13;99023.70;;;23.03;44.82
51999;BME280;38015;50.924;11.598;2022-09-09T04:05:43;99023.97;;;23.04;44.82
51999;BME280;38015;50.924;11.598;2022-09-09T04:08:14;99021.75;;;22.97;45.00
51999;BME280;38015;50.924;11.598;2022-09-09T04:10:44;99021.19;;;23.05;44.84
51999;BME280;38015;50.924;11.598;2022-09-09T04:13:16;99016.36;;;23.05;44.88
51999;BME280;38015;50.924;11.598;2022-09-09T04:15:50;99011.81;;;22.96;45.14
51999;BME280;38015;50.924;11.598;2022-09-09T04:18:15;99008.28;;;22.98;45.07
51999;BME280;38015;50.924;11.598;2022-09-09T04:20:46;99010.70;;;23.04;44.94
51999;BME280;38015;50.924;11.598;2022-09-09T04:23:16;99008.81;;;23.01;45.04
51999;BME280;38015;50.924;11.598;2022-09-09T04:25:48;99012.51;;;22.99;45.11
51999;BME280;38015;50.924;11.598;2022-09-09T04:28:18;99004.64;;;23.04;45.02
51999;BME280;38015;50.924;11.598;2022-09-09T04:30:48;99005.62;;;23.06;44.98
51999;BME280;38015;50.924;11.598;2022-09-09T04:33:18;99005.81;;;23.06;44.99
51999;BME280;38015;50.924;11.598;2022-09-09T04:35:49;99008.44;;;23.05;45.02
51999;BME280;38015;50.924;11.598;2022-09-09T04:38:18;99011.98;;;22.93;45.31
51999;BME280;38015;50.924;11.598;2022-09-09T04:40:49;99010.59;;;22.99;45.16
51999;BME280;38015;50.924;11.598;2022-09-09T04:43:19;99006.12;;;22.93;45.32
51999;BME280;38015;50.924;11.598;2022-09-09T04:45:50;99007.00;;;23.02;45.14
51999;BME280;38015;50.924;11.598;2022-09-09T04:48:20;99009.75;;;23.08;44.94
51999;BME280;38015;50.924;11.598;2022-09-09T04:50:55;99010.09;;;22.99;45.21
51999;BME280;38015;50.924;11.598;2022-09-09T04:53:20;99014.83;;;23.00;45.20
51999;BME280;38015;50.924;11.598;2022-09-09T04:55:50;99013.10;;;22.99;45.24
51999;BME280;38015;50.924;11.598;2022-09-09T04:58:21;99017.16;;;23.04;45.12
51999;BME280;38015;50.924;11.598;2022-09-09T05:00:51;99021.78;;;22.99;45.22
51999;BME280;38015;50.924;11.598;2022-09-09T05:03:21;99022.13;;;23.12;44.92
51999;BME280;38015;50.924;11.598;2022-09-09T05:05:51;99027.05;;;23.07;45.04
51999;BME280;38015;50.924;11.598;2022-09-09T05:08:22;99032.47;;;23.12;44.92
51999;BME280;38015;50.924;11.598;2022-09-09T05:10:52;99034.57;;;23.01;45.20
51999;BME280;38015;50.924;11.598;2022-09-09T05:13:23;99038.24;;;23.19;44.77
51999;BME280;38015;50.924;11.598;2022-09-09T05:15:53;99038.92;;;23.03;45.18
51999;BME280;38015;50.924;11.598;2022-09-09T05:18:23;99042.95;;;22.97;45.33
51999;BME280;38015;50.924;11.598;2022-09-09T05:20:58;99043.53;;;22.98;45.29
51999;BME280;38015;50.924;11.598;2022-09-09T05:23:24;99040.83;;;23.06;45.09
51999;BME280;38015;50.924;11.598;2022-09-09T05:25:56;99040.01;;;23.09;45.01
51999;BME280;38015;50.924;11.598;2022-09-09T05:28:25;99039.19;;;23.10;44.99
51999;BME280;38015;50.924;11.598;2022-09-09T05:30:56;99038.36;;;23.07;45.06
51999;BME280;38015;50.924;11.598;2022-09-09T05:33:26;99039.24;;;23.13;44.91
51999;BME280;38015;50.924;11.598;2022-09-09T05:35:57;99044.64;;;23.06;45.08
51999;BME280;38015;50.924;11.598;2022-09-09T05:38:26;99053.65;;;23.03;45.15
51999;BME280;38015;50.924;11.598;2022-09-09T05:40:56;99053.05;;;23.09;45.03
51999;BME280;38015;50.924;11.598;2022-09-09T05:43:27;99055.41;;;23.05;45.10
51999;BME280;38015;50.924;11.598;2022-09-09T05:45:59;99057.64;;;23.07;45.04
51999;BME280;38015;50.924;11.598;2022-09-09T05:48:28;99055.52;;;23.06;45.09
51999;BME280;38015;50.924;11.598;2022-09-09T05:50:58;99053.81;;;23.39;44.22
51999;BME280;38015;50.924;11.598;2022-09-09T05:53:29;99054.56;;;23.26;44.64
51999;BME280;38015;50.924;11.598;2022-09-09T05:56:01;99054.09;;;23.14;45.09
51999;BME280;38015;50.924;11.598;2022-09-09T05:58:29;99056.65;;;23.28;44.87
51999;BME280;38015;50.924;11.598;2022-09-09T06:01:02;99061.44;;;23.25;44.94
51999;BME280;38015;50.924;11.598;2022-09-09T06:03:30;99062.10;;;23.28;44.97
51999;BME280;38015;50.924;11.598;2022-09-09T06:06:01;99057.04;;;23.33;44.90
51999;BME280;38015;50.924;11.598;2022-09-09T06:08:30;99056.23;;;23.29;45.10
51999;BME280;38015;50.924;11.598;2022-09-09T06:11:02;99057.93;;;23.34;45.07
51999;BME280;38015;50.924;11.598;2022-09-09T06:13:31;99055.47;;;23.41;44.97
51999;BME280;38015;50.924;11.598;2022-09-09T06:16:01;99050.17;;;23.38;45.04
51999;BME280;38015;50.924;11.598;2022-09-09T06:18:32;99047.93;;;23.48;44.81
51999;BME280;38015;50.924;11.598;2022-09-09T06:21:04;99047.95;;;23.48;44.91
51999;BME280;38015;50.924;11.598;2022-09-09T06:23:33;99048.11;;;23.38;45.21
51999;BME280;38015;50.924;11.598;2022-09-09T06:26:05;99054.83;;;23.50;45.02
51999;BME280;38015;50.924;11.598;2022-09-09T06:28:34;99056.70;;;23.56;44.93
51999;BME280;38015;50.924;11.598;2022-09-09T06:31:05;99055.48;;;23.53;45.19
51999;BME280;38015;50.924;11.598;2022-09-09T06:33:35;99048.07;;;23.91;44.13
51999;BME280;38015;50.924;11.598;2022-09-09T06:36:05;99054.31;;;23.76;44.45
51999;BME280;38015;50.924;11.598;2022-09-09T06:38:34;99060.71;;;23.55;44.40
51999;BME280;38015;50.924;11.598;2022-09-09T06:41:05;99055.60;;;23.48;44.73
51999;BME280;38015;50.924;11.598;2022-09-09T06:43:36;99056.23;;;23.60;44.69
51999;BME280;38015;50.924;11.598;2022-09-09T06:46:09;99058.26;;;23.69;45.09
51999;BME280;38015;50.924;11.598;2022-09-09T06:48:36;99056.98;;;23.85;44.88
51999;BME280;38015;50.924;11.598;2022-09-09T06:51:08;99064.00;;;23.97;44.82
51999;BME280;38015;50.924;11.598;2022-09-09T06:53:38;99061.56;;;24.01;45.11
51999;BME280;38015;50.924;11.598;2022-09-09T06:58:39;99061.99;;;24.09;45.15
51999;BME280;38015;50.924;11.598;2022-09-09T07:01:08;99063.03;;;24.10;45.20
51999;BME280;38015;50.924;11.598;2022-09-09T07:03:38;99054.58;;;24.15;45.24
51999;BME280;38015;50.924;11.598;2022-09-09T07:08:39;99063.99;;;24.10;45.50
51999;BME280;38015;50.924;11.598;2022-09-09T07:11:09;99067.40;;;24.10;45.56
51999;BME280;38015;50.924;11.598;2022-09-09T07:13:39;99063.53;;;24.08;45.66
51999;BME280;38015;50.924;11.598;2022-09-09T07:16:11;99068.42;;;24.05;45.76
51999;BME280;38015;50.924;11.598;2022-09-09T07:18:41;99069.87;;;24.15;45.54
51999;BME280;38015;50.924;11.598;2022-09-09T07:21:12;99073.81;;;24.16;45.54
51999;BME280;38015;50.924;11.598;2022-09-09T07:23:41;99069.98;;;24.09;45.75
51999;BME280;38015;50.924;11.598;2022-09-09T07:26:13;99069.95;;;24.14;45.68
51999;BME280;38015;50.924;11.598;2022-09-09T07:28:42;99069.78;;;24.29;45.40
51999;BME280;38015;50.924;11.598;2022-09-09T07:31:14;99068.22;;;24.25;45.62
51999;BME280;38015;50.924;11.598;2022-09-09T07:33:45;99070.14;;;24.30;45.45
51999;BME280;38015;50.924;11.598;2022-09-09T07:36:15;99075.07;;;24.34;45.40
51999;BME280;38015;50.924;11.598;2022-09-09T07:38:45;99076.77;;;24.29;45.59
51999;BME280;38015;50.924;11.598;2022-09-09T07:41:16;99076.25;;;24.41;45.34
51999;BME280;38015;50.924;11.598;2022-09-09T07:43:45;99076.83;;;24.30;45.60
51999;BME280;38015;50.924;11.598;2022-09-09T07:46:16;99078.22;;;24.31;45.61
51999;BME280;38015;50.924;11.598;2022-09-09T07:48:47;99079.13;;;24.44;45.34
51999;BME280;38015;50.924;11.598;2022-09-09T07:51:15;99081.61;;;24.42;45.43
51999;BME280;38015;50.924;11.598;2022-09-09T07:53:46;99085.74;;;24.33;45.60
51999;BME280;38015;50.924;11.598;2022-09-09T07:56:18;99088.12;;;24.71;44.33
51999;BME280;38015;50.924;11.598;2022-09-09T07:58:46;99097.68;;;24.55;44.92
51999;BME280;38015;50.924;11.598;2022-09-09T08:01:18;99100.07;;;24.52;45.05
51999;BME280;38015;50.924;11.598;2022-09-09T08:03:51;99098.07;;;24.53;45.03
51999;BME280;38015;50.924;11.598;2022-09-09T08:06:16;99088.48;;;24.66;44.77
51999;BME280;38015;50.924;11.598;2022-09-09T08:08:50;99085.44;;;24.65;44.78
51999;BME280;38015;50.924;11.598;2022-09-09T08:11:18;99084.64;;;24.55;45.13
51999;BME280;38015;50.924;11.598;2022-09-09T08:13:47;99084.44;;;24.45;45.35
51999;BME280;38015;50.924;11.598;2022-09-09T08:16:20;99085.89;;;24.51;45.30
51999;BME280;38015;50.924;11.598;2022-09-09T08:18:48;99082.79;;;24.63;45.04
51999;BME280;38015;50.924;11.598;2022-09-09T08:21:20;99089.53;;;24.48;45.39
51999;BME280;38015;50.924;11.598;2022-09-09T08:23:50;99084.88;;;24.58;45.20
51999;BME280;38015;50.924;11.598;2022-09-09T08:26:21;99084.66;;;24.70;44.91
51999;BME280;38015;50.924;11.598;2022-09-09T08:28:50;99089.45;;;24.44;45.52
51999;BME280;38015;50.924;11.598;2022-09-09T08:31:22;99083.62;;;24.33;45.87
51999;BME280;38015;50.924;11.598;2022-09-09T08:33:50;99086.43;;;24.44;45.65
51999;BME280;38015;50.924;11.598;2022-09-09T08:36:23;99087.10;;;24.76;44.88
51999;BME280;38015;50.924;11.598;2022-09-09T08:38:52;99081.55;;;24.65;46.06
51999;BME280;38015;50.924;11.598;2022-09-09T08:43:58;99082.11;;;24.43;46.69
51999;BME280;38015;50.924;11.598;2022-09-09T08:46:25;99080.08;;;24.68;45.52
51999;BME280;38015;50.924;11.598;2022-09-09T08:48:56;99083.99;;;24.32;47.99
51999;BME280;38015;50.924;11.598;2022-09-09T08:51:24;99078.40;;;23.82;46.67
51999;BME280;38015;50.924;11.598;2022-09-09T08:53:53;99080.76;;;23.59;45.89
51999;BME280;38015;50.924;11.598;2022-09-09T08:56:24;99081.90;;;23.16;46.20
51999;BME280;38015;50.924;11.598;2022-09-09T08:58:54;99085.21;;;23.20;46.21
51999;BME280;38015;50.924;11.598;2022-09-09T09:03:59;99085.13;;;24.02;45.00
51999;BME280;38015;50.924;11.598;2022-09-09T09:06:34;99093.35;;;24.24;45.05
51999;BME280;38015;50.924;11.598;2022-09-09T09:09:00;99090.54;;;24.50;44.66
51999;BME280;38015;50.924;11.598;2022-09-09T09:11:24;99085.95;;;24.61;44.51
51999;BME280;38015;50.924;11.598;2022-09-09T09:13:59;99088.06;;;24.89;44.28
51999;BME280;38015;50.924;11.598;2022-09-09T09:16:31;99085.30;;;24.95;44.33
51999;BME280;38015;50.924;11.598;2022-09-09T09:18:55;99085.03;;;25.14;43.80
51999;BME280;38015;50.924;11.598;2022-09-09T09:21:32;99084.02;;;25.13;43.87
51999;BME280;38015;50.924;11.598;2022-09-09T09:23:57;99084.67;;;25.20;43.79
51999;BME280;38015;50.924;11.598;2022-09-09T09:26:31;99077.84;;;25.29;43.69
51999;BME280;38015;50.924;11.598;2022-09-09T09:28:59;99078.37;;;25.37;43.50
51999;BME280;38015;50.924;11.598;2022-09-09T09:31:27;99080.52;;;25.35;43.57
51999;BME280;38015;50.924;11.598;2022-09-09T09:33:57;99077.94;;;25.04;44.48
51999;BME280;38015;50.924;11.598;2022-09-09T09:36:34;99083.79;;;24.87;44.93
51999;BME280;38015;50.924;11.598;2022-09-09T09:38:59;99079.71;;;25.09;44.49
51999;BME280;38015;50.924;11.598;2022-09-09T09:41:30;99085.68;;;25.05;44.67
51999;BME280;38015;50.924;11.598;2022-09-09T09:43:59;99082.41;;;24.89;45.01
51999;BME280;38015;50.924;11.598;2022-09-09T09:46:29;99082.04;;;24.77;45.25
51999;BME280;38015;50.924;11.598;2022-09-09T09:49:01;99078.61;;;24.73;45.41
51999;BME280;38015;50.924;11.598;2022-09-09T09:51:31;99084.08;;;25.02;44.47
51999;BME280;38015;50.924;11.598;2022-09-09T09:54:09;99080.80;;;24.83;44.22
51999;BME280;38015;50.924;11.598;2022-09-09T09:56:30;99085.98;;;24.05;43.20
51999;BME280;38015;50.924;11.598;2022-09-09T09:59:01;99085.81;;;23.65;43.19
51999;BME280;38015;50.924;11.598;2022-09-09T10:01:32;99080.37;;;23.44;43.53
51999;BME280;38015;50.924;11.598;2022-09-09T10:06:34;99083.93;;;23.43;43.49
51999;BME280;38015;50.924;11.598;2022-09-09T10:09:17;99084.74;;;23.84;43.00
51999;BME280;38015;50.924;11.598;2022-09-09T10:11:43;99084.83;;;23.96;42.80
51999;BME280;38015;50.924;11.598;2022-09-09T10:14:11;99078.15;;;24.01;42.69
51999;BME280;38015;50.924;11.598;2022-09-09T10:16:44;99076.98;;;24.07;42.72
51999;BME280;38015;50.924;11.598;2022-09-09T10:19:07;99076.41;;;24.07;42.81
51999;BME280;38015;50.924;11.598;2022-09-09T10:21:44;99074.93;;;24.23;42.44
51999;BME280;38015;50.924;11.598;2022-09-09T10:24:20;99074.84;;;24.19;42.59
51999;BME280;38015;50.924;11.598;2022-09-09T10:26:42;99079.31;;;24.31;42.29
51999;BME280;38015;50.924;11.598;2022-09-09T10:29:20;99076.60;;;24.26;42.46
51999;BME280;38015;50.924;11.598;2022-09-09T10:31:43;99077.27;;;24.21;42.56
51999;BME280;38015;50.924;11.598;2022-09-09T10:34:16;99074.01;;;24.24;42.57
51999;BME280;38015;50.924;11.598;2022-09-09T10:36:43;99073.40;;;24.30;42.45
51999;BME280;38015;50.924;11.598;2022-09-09T10:39:15;99066.35;;;24.09;43.00
51999;BME280;38015;50.924;11.598;2022-09-09T10:41:45;99065.25;;;24.06;43.08
51999;BME280;38015;50.924;11.598;2022-09-09T10:44:17;99064.88;;;24.17;42.85
51999;BME280;38015;50.924;11.598;2022-09-09T10:46:48;99066.52;;;24.14;42.95
51999;BME280;38015;50.924;11.598;2022-09-09T10:49:18;99062.53;;;24.20;42.78
51999;BME280;38015;50.924;11.598;2022-09-09T10:51:46;99054.21;;;24.00;43.28
51999;BME280;38015;50.924;11.598;2022-09-09T10:54:23;99052.35;;;24.22;42.81
51999;BME280;38015;50.924;11.598;2022-09-09T10:56:42;99059.08;;;24.25;42.65
51999;BME280;38015;50.924;11.598;2022-09-09T10:59:14;99048.93;;;24.21;42.74
51999;BME280;38015;50.924;11.598;2022-09-09T11:01:44;99044.32;;;24.21;42.72
51999;BME280;38015;50.924;11.598;2022-09-09T11:04:16;99045.80;;;24.24;42.62
51999;BME280;38015;50.924;11.598;2022-09-09T11:06:46;99046.42;;;24.23;42.61
51999;BME280;38015;50.924;11.598;2022-09-09T11:09:16;99045.97;;;24.23;42.66
51999;BME280;38015;50.924;11.598;2022-09-09T11:11:44;99050.81;;;24.23;42.54
51999;BME280;38015;50.924;11.598;2022-09-09T11:14:18;99049.21;;;24.13;42.65
51999;BME280;38015;50.924;11.598;2022-09-09T11:16:48;99047.73;;;24.07;42.93
51999;BME280;38015;50.924;11.598;2022-09-09T11:19:18;99050.60;;;24.14;42.69
51999;BME280;38015;50.924;11.598;2022-09-09T11:21:46;99048.86;;;24.12;42.80
51999;BME280;38015;50.924;11.598;2022-09-09T11:24:19;99049.96;;;24.10;42.83
51999;BME280;38015;50.924;11.598;2022-09-09T11:26:50;99044.07;;;24.10;42.81
51999;BME280;38015;50.924;11.598;2022-09-09T11:29:32;99042.71;;;24.19;42.45
51999;BME280;38015;50.924;11.598;2022-09-09T11:31:54;99044.60;;;24.19;42.35
51999;BME280;38015;50.924;11.598;2022-09-09T11:34:30;99038.84;;;24.11;42.68
51999;BME280;38015;50.924;11.598;2022-09-09T11:36:54;99039.70;;;24.19;42.46
51999;BME280;38015;50.924;11.598;2022-09-09T11:39:28;99047.38;;;24.19;42.54
51999;BME280;38015;50.924;11.598;2022-09-09T11:41:46;99047.74;;;24.18;42.42
51999;BME280;38015;50.924;11.598;2022-09-09T11:44:19;99042.64;;;24.21;42.33
51999;BME280;38015;50.924;11.598;2022-09-09T11:46:50;99034.30;;;24.11;42.57
51999;BME280;38015;50.924;11.598;2022-09-09T11:49:26;99031.50;;;24.15;42.42
51999;BME280;38015;50.924;11.598;2022-09-09T11:51:48;99034.61;;;24.16;42.38
51999;BME280;38015;50.924;11.598;2022-09-09T11:54:29;99035.45;;;24.18;42.15
51999;BME280;38015;50.924;11.598;2022-09-09T11:56:49;99035.69;;;24.05;42.53
51999;BME280;38015;50.924;11.598;2022-09-09T11:59:21;99038.77;;;24.13;42.52
51999;BME280;38015;50.924;11.598;2022-09-09T12:01:50;99037.62;;;24.15;42.23
51999;BME280;38015;50.924;11.598;2022-09-09T12:04:28;99037.25;;;24.15;42.07
51999;BME280;38015;50.924;11.598;2022-09-09T12:06:52;99035.61;;;24.16;42.13
51999;BME280;38015;50.924;11.598;2022-09-09T12:09:25;99039.82;;;24.05;42.49
51999;BME280;38015;50.924;11.598;2022-09-09T12:11:51;99044.36;;;24.09;42.48
51999;BME280;38015;50.924;11.598;2022-09-09T12:14:23;99045.89;;;24.04;42.57
51999;BME280;38015;50.924;11.598;2022-09-09T12:16:51;99039.09;;;23.99;42.68
51999;BME280;38015;50.924;11.598;2022-09-09T12:19:22;99041.54;;;23.98;42.64
51999;BME280;38015;50.924;11.598;2022-09-09T12:22:00;99036.16;;;23.88;42.93
51999;BME280;38015;50.924;11.598;2022-09-09T12:24:30;99041.15;;;23.98;42.68
51999;BME280;38015;50.924;11.598;2022-09-09T12:26:58;99046.70;;;23.99;42.69
51999;BME280;38015;50.924;11.598;2022-09-09T12:29:28;99039.19;;;24.03;42.52
51999;BME280;38015;50.924;11.598;2022-09-09T12:32:02;99037.10;;;23.96;42.47
51999;BME280;38015;50.924;11.598;2022-09-09T12:34:34;99035.90;;;23.97;42.35
51999;BME280;38015;50.924;11.598;2022-09-09T12:36:58;99029.90;;;23.97;42.49
51999;BME280;38015;50.924;11.598;2022-09-09T12:39:31;99031.69;;;23.88;42.57
51999;BME280;38015;50.924;11.598;2022-09-09T12:41:56;99034.49;;;23.98;42.33
51999;BME280;38015;50.924;11.598;2022-09-09T12:44:26;99039.57;;;23.97;42.42
51999;BME280;38015;50.924;11.598;2022-09-09T12:46:59;99036.81;;;23.99;42.45
51999;BME280;38015;50.924;11.598;2022-09-09T12:49:30;99037.00;;;24.00;42.14
51999;BME280;38015;50.924;11.598;2022-09-09T12:51:57;99036.87;;;24.00;42.21
51999;BME280;38015;50.924;11.598;2022-09-09T12:54:27;99032.69;;;23.94;42.28
51999;BME280;38015;50.924;11.598;2022-09-09T12:56:58;99030.90;;;23.94;42.29
51999;BME280;38015;50.924;11.598;2022-09-09T12:59:36;99029.53;;;23.95;42.39
51999;BME280;38015;50.924;11.598;2022-09-09T13:01:59;99026.07;;;24.04;42.16
51999;BME280;38015;50.924;11.598;2022-09-09T13:04:29;99026.22;;;23.99;42.01
51999;BME280;38015;50.924;11.598;2022-09-09T13:07:05;99028.13;;;23.98;42.12
51999;BME280;38015;50.924;11.598;2022-09-09T13:09:29;99020.44;;;24.01;42.16
51999;BME280;38015;50.924;11.598;2022-09-09T13:12:00;99030.60;;;23.89;42.45
51999;BME280;38015;50.924;11.598;2022-09-09T13:14:32;99034.95;;;23.97;42.27
51999;BME280;38015;50.924;11.598;2022-09-09T13:17:02;99032.87;;;23.92;42.47
51999;BME280;38015;50.924;11.598;2022-09-09T13:19:33;99036.27;;;23.92;42.42